sensor_id;sensor_type;location;lat;lon;timestamp;P1;durP1;ratioP1;P2;durP2;ratioP2
11865;SDS011;5992;52.744;6.898;2022-09-09T00:01:28;2.03;;;1.90;;
11865;SDS011;5992;52.744;6.898;2022-09-09T00:04:55;2.13;;;1.80;;
11865;SDS011;5992;52.744;6.898;2022-09-09T00:08:06;1.83;;;1.73;;
11865;SDS011;5992;52.744;6.898;2022-09-09T00:11:32;2.03;;;1.93;;
11865;SDS011;5992;52.744;6.898;2022-09-09T00:14:47;2.13;;;1.97;;
11865;SDS011;5992;52.744;6.898;2022-09-09T00:18:14;1.83;;;1.73;;
11865;SDS011;5992;52.744;6.898;2022-09-09T00:21:25;1.90;;;1.80;;
11865;SDS011;5992;52.744;6.898;2022-09-09T00:24:51;3.05;;;1.80;;
11865;SDS011;5992;52.744;6.898;2022-09-09T00:28:01;1.95;;;1.85;;
11865;SDS011;5992;52.744;6.898;2022-09-09T00:31:28;1.90;;;1.80;;
11865;SDS011;5992;52.744;6.898;2022-09-09T00:34:42;2.33;;;1.80;;
11865;SDS011;5992;52.744;6.898;2022-09-09T00:38:08;2.07;;;1.80;;
11865;SDS011;5992;52.744;6.898;2022-09-09T00:41:18;2.10;;;1.87;;
11865;SDS011;5992;52.744;6.898;2022-09-09T00:44:50;2.65;;;2.00;;
11865;SDS011;5992;52.744;6.898;2022-09-09T00:48:06;2.73;;;2.23;;
11865;SDS011;5992;52.744;6.898;2022-09-09T00:51:33;2.70;;;1.60;;
11865;SDS011;5992;52.744;6.898;2022-09-09T00:54:47;2.20;;;2.00;;
11865;SDS011;5992;52.744;6.898;2022-09-09T00:58:11;1.70;;;1.60;;
11865;SDS011;5992;52.744;6.898;2022-09-09T01:01:35;1.80;;;1.70;;
11865;SDS011;5992;52.744;6.898;2022-09-09T01:05:05;3.55;;;2.00;;
11865;SDS011;5992;52.744;6.898;2022-09-09T01:08:20;1.90;;;1.80;;
11865;SDS011;5992;52.744;6.898;2022-09-09T01:11:45;1.97;;;1.87;;
11865;SDS011;5992;52.744;6.898;2022-09-09T01:15:09;3.80;;;1.87;;
11865;SDS011;5992;52.744;6.898;2022-09-09T01:18:35;2.60;;;1.83;;
11865;SDS011;5992;52.744;6.898;2022-09-09T01:22:01;2.33;;;1.50;;
11865;SDS011;5992;52.744;6.898;2022-09-09T01:25:28;1.93;;;1.83;;
11865;SDS011;5992;52.744;6.898;2022-09-09T01:28:52;1.90;;;1.60;;
11865;SDS011;5992;52.744;6.898;2022-09-09T01:35:48;1.50;;;1.40;;
11865;SDS011;5992;52.744;6.898;2022-09-09T01:39:12;2.37;;;1.60;;
11865;SDS011;5992;52.744;6.898;2022-09-09T01:42:36;3.67;;;1.63;;
11865;SDS011;5992;52.744;6.898;2022-09-09T01:45:51;2.40;;;2.30;;
11865;SDS011;5992;52.744;6.898;2022-09-09T01:49:15;3.93;;;2.03;;
11865;SDS011;5992;52.744;6.898;2022-09-09T01:52:39;3.27;;;1.70;;
11865;SDS011;5992;52.744;6.898;2022-09-09T01:56:07;2.90;;;1.30;;
11865;SDS011;5992;52.744;6.898;2022-09-09T01:59:39;1.97;;;1.40;;
11865;SDS011;5992;52.744;6.898;2022-09-09T02:02:53;2.40;;;1.65;;
11865;SDS011;5992;52.744;6.898;2022-09-09T02:06:19;1.70;;;1.60;;
11865;SDS011;5992;52.744;6.898;2022-09-09T02:09:43;1.50;;;1.40;;
11865;SDS011;5992;52.744;6.898;2022-09-09T02:13:11;1.70;;;1.60;;
11865;SDS011;5992;52.744;6.898;2022-09-09T02:16:36;1.83;;;1.60;;
11865;SDS011;5992;52.744;6.898;2022-09-09T02:20:03;2.30;;;1.45;;
11865;SDS011;5992;52.744;6.898;2022-09-09T02:23:24;2.57;;;1.60;;
11865;SDS011;5992;52.744;6.898;2022-09-09T02:26:52;1.60;;;1.45;;
11865;SDS011;5992;52.744;6.898;2022-09-09T02:30:19;1.55;;;1.45;;
11865;SDS011;5992;52.744;6.898;2022-09-09T02:33:46;5.20;;;2.30;;
11865;SDS011;5992;52.744;6.898;2022-09-09T02:37:02;2.60;;;1.67;;
11865;SDS011;5992;52.744;6.898;2022-09-09T02:40:26;1.70;;;1.57;;
11865;SDS011;5992;52.744;6.898;2022-09-09T02:43:53;1.60;;;1.50;;
11865;SDS011;5992;52.744;6.898;2022-09-09T02:50:35;1.60;;;1.45;;
11865;SDS011;5992;52.744;6.898;2022-09-09T02:54:01;2.00;;;1.80;;
11865;SDS011;5992;52.744;6.898;2022-09-09T02:57:28;2.03;;;1.80;;
11865;SDS011;5992;52.744;6.898;2022-09-09T03:00:55;2.03;;;1.70;;
11865;SDS011;5992;52.744;6.898;2022-09-09T03:04:19;1.53;;;1.37;;
11865;SDS011;5992;52.744;6.898;2022-09-09T03:07:43;1.60;;;1.50;;
11865;SDS011;5992;52.744;6.898;2022-09-09T03:10:49;2.10;;;1.90;;
11865;SDS011;5992;52.744;6.898;2022-09-09T03:14:13;1.20;;;1.20;;
11865;SDS011;5992;52.744;6.898;2022-09-09T03:17:26;1.43;;;1.27;;
11865;SDS011;5992;52.744;6.898;2022-09-09T03:20:42;1.70;;;1.60;;
11865;SDS011;5992;52.744;6.898;2022-09-09T03:23:56;1.87;;;1.20;;
11865;SDS011;5992;52.744;6.898;2022-09-09T03:27:23;2.17;;;1.17;;
11865;SDS011;5992;52.744;6.898;2022-09-09T03:30:47;1.23;;;1.07;;
11865;SDS011;5992;52.744;6.898;2022-09-09T03:34:02;0.83;;;0.83;;
11865;SDS011;5992;52.744;6.898;2022-09-09T03:37:25;1.63;;;1.30;;
11865;SDS011;5992;52.744;6.898;2022-09-09T03:40:52;0.80;;;0.80;;
11865;SDS011;5992;52.744;6.898;2022-09-09T03:44:17;1.10;;;1.05;;
11865;SDS011;5992;52.744;6.898;2022-09-09T03:47:42;1.23;;;1.23;;
11865;SDS011;5992;52.744;6.898;2022-09-09T03:50:55;0.90;;;0.90;;
11865;SDS011;5992;52.744;6.898;2022-09-09T03:54:20;1.50;;;1.40;;
11865;SDS011;5992;52.744;6.898;2022-09-09T03:57:20;1.93;;;1.37;;
11865;SDS011;5992;52.744;6.898;2022-09-09T04:00:47;1.60;;;1.50;;
11865;SDS011;5992;52.744;6.898;2022-09-09T04:04:10;2.50;;;2.30;;
11865;SDS011;5992;52.744;6.898;2022-09-09T04:07:22;3.20;;;2.33;;
11865;SDS011;5992;52.744;6.898;2022-09-09T04:10:34;2.60;;;2.20;;
11865;SDS011;5992;52.744;6.898;2022-09-09T04:14:02;2.33;;;2.13;;
11865;SDS011;5992;52.744;6.898;2022-09-09T04:17:27;3.73;;;2.83;;
11865;SDS011;5992;52.744;6.898;2022-09-09T04:20:54;4.50;;;2.90;;
11865;SDS011;5992;52.744;6.898;2022-09-09T04:24:19;2.50;;;2.30;;
11865;SDS011;5992;52.744;6.898;2022-09-09T04:27:19;2.10;;;2.00;;
11865;SDS011;5992;52.744;6.898;2022-09-09T04:30:31;2.57;;;2.37;;
11865;SDS011;5992;52.744;6.898;2022-09-09T04:33:44;3.93;;;2.17;;
11865;SDS011;5992;52.744;6.898;2022-09-09T04:37:09;2.67;;;2.47;;
11865;SDS011;5992;52.744;6.898;2022-09-09T04:40:22;4.70;;;2.47;;
11865;SDS011;5992;52.744;6.898;2022-09-09T04:43:34;3.17;;;2.40;;
11865;SDS011;5992;52.744;6.898;2022-09-09T04:46:58;2.70;;;2.25;;
11865;SDS011;5992;52.744;6.898;2022-09-09T04:50:11;2.50;;;2.30;;
11865;SDS011;5992;52.744;6.898;2022-09-09T04:53:35;2.70;;;2.20;;
11865;SDS011;5992;52.744;6.898;2022-09-09T04:56:47;2.83;;;2.63;;
11865;SDS011;5992;52.744;6.898;2022-09-09T04:59:59;2.57;;;2.37;;
11865;SDS011;5992;52.744;6.898;2022-09-09T05:03:18;2.30;;;2.20;;
11865;SDS011;5992;52.744;6.898;2022-09-09T05:06:31;2.23;;;2.00;;
11865;SDS011;5992;52.744;6.898;2022-09-09T05:09:59;2.25;;;2.05;;
11865;SDS011;5992;52.744;6.898;2022-09-09T05:12:59;2.20;;;2.00;;
11865;SDS011;5992;52.744;6.898;2022-09-09T05:16:23;3.57;;;2.37;;
11865;SDS011;5992;52.744;6.898;2022-09-09T05:19:47;2.50;;;2.30;;
11865;SDS011;5992;52.744;6.898;2022-09-09T05:23:00;2.50;;;2.30;;
11865;SDS011;5992;52.744;6.898;2022-09-09T05:26:13;3.60;;;2.83;;
11865;SDS011;5992;52.744;6.898;2022-09-09T05:29:37;2.77;;;2.20;;
11865;SDS011;5992;52.744;6.898;2022-09-09T05:33:01;2.20;;;2.10;;
11865;SDS011;5992;52.744;6.898;2022-09-09T05:36:14;3.07;;;2.23;;
11865;SDS011;5992;52.744;6.898;2022-09-09T05:39:43;2.37;;;2.17;;
11865;SDS011;5992;52.744;6.898;2022-09-09T05:43:11;2.50;;;2.30;;
11865;SDS011;5992;52.744;6.898;2022-09-09T05:46:26;2.40;;;2.30;;
11865;SDS011;5992;52.744;6.898;2022-09-09T05:49:51;2.55;;;2.30;;
11865;SDS011;5992;52.744;6.898;2022-09-09T05:53:06;2.13;;;2.03;;
11865;SDS011;5992;52.744;6.898;2022-09-09T05:56:21;2.67;;;2.30;;
11865;SDS011;5992;52.744;6.898;2022-09-09T05:59:48;2.10;;;2.00;;
11865;SDS011;5992;52.744;6.898;2022-09-09T06:02:50;2.70;;;2.25;;
11865;SDS011;5992;52.744;6.898;2022-09-09T06:06:14;2.60;;;2.40;;
11865;SDS011;5992;52.744;6.898;2022-09-09T06:09:38;2.50;;;2.30;;
11865;SDS011;5992;52.744;6.898;2022-09-09T06:12:53;2.03;;;1.93;;
11865;SDS011;5992;52.744;6.898;2022-09-09T06:16:17;2.93;;;2.17;;
11865;SDS011;5992;52.744;6.898;2022-09-09T06:19:42;1.97;;;1.87;;
11865;SDS011;5992;52.744;6.898;2022-09-09T06:22:54;3.17;;;2.00;;
11865;SDS011;5992;52.744;6.898;2022-09-09T06:26:08;2.37;;;2.03;;
11865;SDS011;5992;52.744;6.898;2022-09-09T06:29:32;2.40;;;2.20;;
11865;SDS011;5992;52.744;6.898;2022-09-09T06:32:57;1.80;;;1.70;;
11865;SDS011;5992;52.744;6.898;2022-09-09T06:36:10;2.53;;;2.33;;
11865;SDS011;5992;52.744;6.898;2022-09-09T06:39:36;2.90;;;2.27;;
11865;SDS011;5992;52.744;6.898;2022-09-09T06:42:51;2.00;;;1.90;;
11865;SDS011;5992;52.744;6.898;2022-09-09T06:46:10;2.23;;;2.03;;
11865;SDS011;5992;52.744;6.898;2022-09-09T06:49:34;2.90;;;2.10;;
11865;SDS011;5992;52.744;6.898;2022-09-09T06:52:47;2.40;;;2.20;;
11865;SDS011;5992;52.744;6.898;2022-09-09T06:55:59;2.67;;;2.47;;
11865;SDS011;5992;52.744;6.898;2022-09-09T06:59:23;2.50;;;2.30;;
11865;SDS011;5992;52.744;6.898;2022-09-09T07:02:36;2.27;;;2.07;;
11865;SDS011;5992;52.744;6.898;2022-09-09T07:06:02;2.50;;;2.30;;
11865;SDS011;5992;52.744;6.898;2022-09-09T07:09:17;4.27;;;2.50;;
11865;SDS011;5992;52.744;6.898;2022-09-09T07:12:29;2.80;;;2.50;;
11865;SDS011;5992;52.744;6.898;2022-09-09T07:15:44;2.13;;;2.00;;
11865;SDS011;5992;52.744;6.898;2022-09-09T07:18:59;2.50;;;2.30;;
11865;SDS011;5992;52.744;6.898;2022-09-09T07:22:23;2.93;;;2.70;;
11865;SDS011;5992;52.744;6.898;2022-09-09T07:25:35;1.90;;;1.80;;
11865;SDS011;5992;52.744;6.898;2022-09-09T07:28:47;5.37;;;2.03;;
11865;SDS011;5992;52.744;6.898;2022-09-09T07:32:11;2.40;;;2.20;;
11865;SDS011;5992;52.744;6.898;2022-09-09T07:35:13;3.30;;;2.20;;
11865;SDS011;5992;52.744;6.898;2022-09-09T07:38:38;2.87;;;2.37;;
11865;SDS011;5992;52.744;6.898;2022-09-09T07:42:01;2.67;;;2.47;;
11865;SDS011;5992;52.744;6.898;2022-09-09T07:45:13;4.10;;;2.45;;
11865;SDS011;5992;52.744;6.898;2022-09-09T07:48:39;3.63;;;2.27;;
11865;SDS011;5992;52.744;6.898;2022-09-09T07:52:05;3.10;;;2.33;;
11865;SDS011;5992;52.744;6.898;2022-09-09T07:55:30;3.87;;;2.30;;
11865;SDS011;5992;52.744;6.898;2022-09-09T07:58:44;3.40;;;2.63;;
11865;SDS011;5992;52.744;6.898;2022-09-09T08:02:08;3.87;;;2.50;;
11865;SDS011;5992;52.744;6.898;2022-09-09T08:05:32;5.27;;;2.93;;
11865;SDS011;5992;52.744;6.898;2022-09-09T08:08:50;3.13;;;2.67;;
11865;SDS011;5992;52.744;6.898;2022-09-09T08:12:15;4.50;;;2.60;;
11865;SDS011;5992;52.744;6.898;2022-09-09T08:15:39;2.50;;;2.30;;
11865;SDS011;5992;52.744;6.898;2022-09-09T08:18:51;2.90;;;2.57;;
11865;SDS011;5992;52.744;6.898;2022-09-09T08:22:03;4.43;;;2.67;;
11865;SDS011;5992;52.744;6.898;2022-09-09T08:25:17;4.90;;;2.30;;
11865;SDS011;5992;52.744;6.898;2022-09-09T08:28:40;4.47;;;3.03;;
11865;SDS011;5992;52.744;6.898;2022-09-09T08:32:05;2.80;;;2.10;;
11865;SDS011;5992;52.744;6.898;2022-09-09T08:35:17;4.57;;;2.77;;
11865;SDS011;5992;52.744;6.898;2022-09-09T08:38:30;3.07;;;2.33;;
11865;SDS011;5992;52.744;6.898;2022-09-09T08:41:48;5.00;;;2.45;;
11865;SDS011;5992;52.744;6.898;2022-09-09T08:45:18;3.07;;;1.90;;
11865;SDS011;5992;52.744;6.898;2022-09-09T08:48:45;5.77;;;2.43;;
11865;SDS011;5992;52.744;6.898;2022-09-09T08:52:08;2.95;;;2.00;;
11865;SDS011;5992;52.744;6.898;2022-09-09T08:55:35;2.80;;;1.90;;
11865;SDS011;5992;52.744;6.898;2022-09-09T08:59:01;5.63;;;2.03;;
11865;SDS011;5992;52.744;6.898;2022-09-09T09:02:26;3.97;;;2.27;;
11865;SDS011;5992;52.744;6.898;2022-09-09T09:05:51;5.70;;;2.10;;
11865;SDS011;5992;52.744;6.898;2022-09-09T09:09:20;2.57;;;1.43;;
11865;SDS011;5992;52.744;6.898;2022-09-09T09:12:42;2.37;;;2.07;;
11865;SDS011;5992;52.744;6.898;2022-09-09T09:16:12;3.40;;;1.70;;
11865;SDS011;5992;52.744;6.898;2022-09-09T09:19:37;4.03;;;1.80;;
11865;SDS011;5992;52.744;6.898;2022-09-09T09:23:00;3.73;;;1.80;;
11865;SDS011;5992;52.744;6.898;2022-09-09T09:26:25;3.07;;;1.83;;
11865;SDS011;5992;52.744;6.898;2022-09-09T09:29:49;7.87;;;2.00;;
11865;SDS011;5992;52.744;6.898;2022-09-09T09:33:15;5.33;;;2.40;;
11865;SDS011;5992;52.744;6.898;2022-09-09T09:36:39;4.27;;;1.80;;
11865;SDS011;5992;52.744;6.898;2022-09-09T09:40:09;5.53;;;2.37;;
11865;SDS011;5992;52.744;6.898;2022-09-09T09:43:33;4.37;;;1.43;;
11865;SDS011;5992;52.744;6.898;2022-09-09T09:47:07;3.37;;;1.60;;
11865;SDS011;5992;52.744;6.898;2022-09-09T09:50:32;4.47;;;1.80;;
11865;SDS011;5992;52.744;6.898;2022-09-09T09:54:07;4.70;;;1.97;;
11865;SDS011;5992;52.744;6.898;2022-09-09T09:57:29;4.50;;;1.40;;
11865;SDS011;5992;52.744;6.898;2022-09-09T10:00:56;3.93;;;1.43;;
11865;SDS011;5992;52.744;6.898;2022-09-09T10:04:13;5.77;;;1.80;;
11865;SDS011;5992;52.744;6.898;2022-09-09T10:07:38;5.40;;;1.70;;
11865;SDS011;5992;52.744;6.898;2022-09-09T10:11:05;5.50;;;1.80;;
11865;SDS011;5992;52.744;6.898;2022-09-09T10:14:20;5.40;;;2.20;;
11865;SDS011;5992;52.744;6.898;2022-09-09T10:17:48;3.95;;;1.60;;
11865;SDS011;5992;52.744;6.898;2022-09-09T10:20:58;2.90;;;1.35;;
11865;SDS011;5992;52.744;6.898;2022-09-09T10:24:31;4.93;;;1.63;;
11865;SDS011;5992;52.744;6.898;2022-09-09T10:27:43;2.43;;;1.13;;
11865;SDS011;5992;52.744;6.898;2022-09-09T10:31:11;3.10;;;1.40;;
11865;SDS011;5992;52.744;6.898;2022-09-09T10:34:23;2.85;;;1.35;;
11865;SDS011;5992;52.744;6.898;2022-09-09T10:37:50;2.43;;;1.10;;
11865;SDS011;5992;52.744;6.898;2022-09-09T10:41:11;2.60;;;1.77;;
11865;SDS011;5992;52.744;6.898;2022-09-09T10:44:38;4.10;;;1.40;;
11865;SDS011;5992;52.744;6.898;2022-09-09T10:47:53;2.10;;;1.40;;
11865;SDS011;5992;52.744;6.898;2022-09-09T10:51:20;3.80;;;1.33;;
11865;SDS011;5992;52.744;6.898;2022-09-09T10:54:35;2.57;;;1.03;;
11865;SDS011;5992;52.744;6.898;2022-09-09T10:58:00;2.17;;;1.40;;
11865;SDS011;5992;52.744;6.898;2022-09-09T11:01:15;1.83;;;1.00;;
11865;SDS011;5992;52.744;6.898;2022-09-09T11:04:41;4.53;;;1.50;;
11865;SDS011;5992;52.744;6.898;2022-09-09T11:07:54;2.93;;;1.27;;
11865;SDS011;5992;52.744;6.898;2022-09-09T11:11:17;3.65;;;1.30;;
11865;SDS011;5992;52.744;6.898;2022-09-09T11:14:30;3.35;;;1.35;;
11865;SDS011;5992;52.744;6.898;2022-09-09T11:17:55;5.53;;;1.53;;
11865;SDS011;5992;52.744;6.898;2022-09-09T11:21:08;5.55;;;1.70;;
11865;SDS011;5992;52.744;6.898;2022-09-09T11:24:31;3.50;;;1.53;;
11865;SDS011;5992;52.744;6.898;2022-09-09T11:27:44;4.23;;;1.40;;
11865;SDS011;5992;52.744;6.898;2022-09-09T11:31:17;3.90;;;1.40;;
11865;SDS011;5992;52.744;6.898;2022-09-09T11:34:44;3.63;;;1.13;;
11865;SDS011;5992;52.744;6.898;2022-09-09T11:41:33;4.63;;;1.13;;
11865;SDS011;5992;52.744;6.898;2022-09-09T11:44:57;4.03;;;1.37;;
11865;SDS011;5992;52.744;6.898;2022-09-09T11:48:23;2.87;;;1.20;;
11865;SDS011;5992;52.744;6.898;2022-09-09T11:51:47;3.25;;;1.10;;
11865;SDS011;5992;52.744;6.898;2022-09-09T11:54:50;4.63;;;1.43;;
11865;SDS011;5992;52.744;6.898;2022-09-09T11:58:03;2.97;;;1.00;;
11865;SDS011;5992;52.744;6.898;2022-09-09T12:01:15;3.30;;;1.47;;
11865;SDS011;5992;52.744;6.898;2022-09-09T12:04:40;2.53;;;1.30;;
11865;SDS011;5992;52.744;6.898;2022-09-09T12:07:54;2.43;;;1.10;;
11865;SDS011;5992;52.744;6.898;2022-09-09T12:11:23;1.90;;;1.10;;
11865;SDS011;5992;52.744;6.898;2022-09-09T12:14:42;1.73;;;1.07;;
11865;SDS011;5992;52.744;6.898;2022-09-09T12:18:02;3.57;;;1.37;;
11865;SDS011;5992;52.744;6.898;2022-09-09T12:21:20;4.10;;;1.40;;
11865;SDS011;5992;52.744;6.898;2022-09-09T12:24:46;2.33;;;1.10;;
11865;SDS011;5992;52.744;6.898;2022-09-09T12:28:03;2.25;;;1.15;;
11865;SDS011;5992;52.744;6.898;2022-09-09T12:31:28;1.95;;;1.25;;
11865;SDS011;5992;52.744;6.898;2022-09-09T12:34:39;2.90;;;0.93;;
11865;SDS011;5992;52.744;6.898;2022-09-09T12:38:04;2.47;;;1.07;;
11865;SDS011;5992;52.744;6.898;2022-09-09T12:41:20;5.13;;;1.33;;
11865;SDS011;5992;52.744;6.898;2022-09-09T12:44:51;1.17;;;0.87;;
11865;SDS011;5992;52.744;6.898;2022-09-09T12:48:03;3.50;;;1.30;;
11865;SDS011;5992;52.744;6.898;2022-09-09T12:51:28;2.97;;;0.90;;
11865;SDS011;5992;52.744;6.898;2022-09-09T12:54:43;1.57;;;0.90;;
11865;SDS011;5992;52.744;6.898;2022-09-09T12:58:05;1.10;;;0.90;;
11865;SDS011;5992;52.744;6.898;2022-09-09T13:01:18;1.77;;;1.03;;
11865;SDS011;5992;52.744;6.898;2022-09-09T13:04:42;2.63;;;0.90;;
11865;SDS011;5992;52.744;6.898;2022-09-09T13:07:42;3.83;;;0.97;;
11865;SDS011;5992;52.744;6.898;2022-09-09T13:11:09;2.10;;;1.13;;
11865;SDS011;5992;52.744;6.898;2022-09-09T13:14:22;2.70;;;0.80;;
11865;SDS011;5992;52.744;6.898;2022-09-09T13:18:00;1.95;;;0.98;;
11865;SDS011;5992;52.744;6.898;2022-09-09T13:21:14;3.33;;;0.90;;
11865;SDS011;5992;52.744;6.898;2022-09-09T13:24:38;1.90;;;1.00;;
11865;SDS011;5992;52.744;6.898;2022-09-09T13:27:40;3.43;;;1.07;;
11865;SDS011;5992;52.744;6.898;2022-09-09T13:31:05;1.37;;;1.10;;
11865;SDS011;5992;52.744;6.898;2022-09-09T13:34:26;2.07;;;1.40;;
11865;SDS011;5992;52.744;6.898;2022-09-09T13:37:47;2.63;;;0.97;;
11865;SDS011;5992;52.744;6.898;2022-09-09T13:40:54;2.70;;;1.03;;
11865;SDS011;5992;52.744;6.898;2022-09-09T13:44:19;3.20;;;1.10;;
11865;SDS011;5992;52.744;6.898;2022-09-09T13:47:32;2.87;;;0.77;;
11865;SDS011;5992;52.744;6.898;2022-09-09T13:50:56;1.83;;;0.77;;
11865;SDS011;5992;52.744;6.898;2022-09-09T13:54:09;1.50;;;0.90;;
11865;SDS011;5992;52.744;6.898;2022-09-09T13:57:36;1.73;;;1.00;;
11865;SDS011;5992;52.744;6.898;2022-09-09T14:00:38;2.30;;;1.07;;
11865;SDS011;5992;52.744;6.898;2022-09-09T14:04:03;1.60;;;0.80;;
11865;SDS011;5992;52.744;6.898;2022-09-09T14:07:18;2.25;;;0.80;;
11865;SDS011;5992;52.744;6.898;2022-09-09T14:10:41;1.75;;;0.90;;
11865;SDS011;5992;52.744;6.898;2022-09-09T14:13:44;1.80;;;0.87;;
11865;SDS011;5992;52.744;6.898;2022-09-09T14:16:59;1.37;;;0.83;;
11865;SDS011;5992;52.744;6.898;2022-09-09T14:20:11;1.40;;;0.83;;
11865;SDS011;5992;52.744;6.898;2022-09-09T14:23:26;1.33;;;0.80;;
11865;SDS011;5992;52.744;6.898;2022-09-09T14:26:26;3.70;;;0.97;;
11865;SDS011;5992;52.744;6.898;2022-09-09T14:29:38;0.63;;;0.57;;
11865;SDS011;5992;52.744;6.898;2022-09-09T14:32:40;2.23;;;0.90;;
11865;SDS011;5992;52.744;6.898;2022-09-09T14:36:04;1.10;;;0.70;;
11865;SDS011;5992;52.744;6.898;2022-09-09T14:39:04;0.77;;;0.70;;
11865;SDS011;5992;52.744;6.898;2022-09-09T14:42:17;1.20;;;0.73;;
11865;SDS011;5992;52.744;6.898;2022-09-09T14:45:29;1.60;;;0.70;;
11865;SDS011;5992;52.744;6.898;2022-09-09T14:48:54;1.80;;;0.93;;
11865;SDS011;5992;52.744;6.898;2022-09-09T14:52:07;1.07;;;0.83;;
11865;SDS011;5992;52.744;6.898;2022-09-09T14:55:19;1.05;;;0.70;;
11865;SDS011;5992;52.744;6.898;2022-09-09T14:58:19;0.60;;;0.50;;
11865;SDS011;5992;52.744;6.898;2022-09-09T15:01:34;1.40;;;0.70;;
11865;SDS011;5992;52.744;6.898;2022-09-09T15:04:35;2.00;;;0.70;;
11865;SDS011;5992;52.744;6.898;2022-09-09T15:08:00;2.33;;;1.00;;
11865;SDS011;5992;52.744;6.898;2022-09-09T15:11:00;1.33;;;0.77;;
11865;SDS011;5992;52.744;6.898;2022-09-09T15:14:24;1.00;;;0.70;;
11865;SDS011;5992;52.744;6.898;2022-09-09T15:17:36;3.27;;;0.90;;
11865;SDS011;5992;52.744;6.898;2022-09-09T15:20:49;0.63;;;0.63;;
11865;SDS011;5992;52.744;6.898;2022-09-09T15:24:01;1.63;;;0.70;;
11865;SDS011;5992;52.744;6.898;2022-09-09T15:27:25;0.75;;;0.75;;
11865;SDS011;5992;52.744;6.898;2022-09-09T15:30:25;1.20;;;0.90;;
11865;SDS011;5992;52.744;6.898;2022-09-09T15:33:39;2.27;;;0.80;;
11865;SDS011;5992;52.744;6.898;2022-09-09T15:36:41;2.95;;;0.95;;
11865;SDS011;5992;52.744;6.898;2022-09-09T15:40:06;0.93;;;0.80;;
11865;SDS011;5992;52.744;6.898;2022-09-09T15:43:10;1.73;;;0.83;;
11865;SDS011;5992;52.744;6.898;2022-09-09T15:46:26;0.97;;;0.70;;
11865;SDS011;5992;52.744;6.898;2022-09-09T15:49:38;2.35;;;1.00;;
11865;SDS011;5992;52.744;6.898;2022-09-09T15:53:03;1.10;;;0.90;;
11865;SDS011;5992;52.744;6.898;2022-09-09T15:56:19;1.70;;;0.80;;
11865;SDS011;5992;52.744;6.898;2022-09-09T15:59:35;1.13;;;0.80;;
11865;SDS011;5992;52.744;6.898;2022-09-09T16:02:38;1.70;;;1.13;;
11865;SDS011;5992;52.744;6.898;2022-09-09T16:05:50;1.17;;;0.77;;
11865;SDS011;5992;52.744;6.898;2022-09-09T16:09:05;0.83;;;0.70;;
11865;SDS011;5992;52.744;6.898;2022-09-09T16:12:29;1.05;;;1.00;;
11865;SDS011;5992;52.744;6.898;2022-09-09T16:15:29;0.70;;;0.70;;
11865;SDS011;5992;52.744;6.898;2022-09-09T16:18:41;0.87;;;0.83;;
11865;SDS011;5992;52.744;6.898;2022-09-09T16:21:53;1.07;;;0.80;;
11865;SDS011;5992;52.744;6.898;2022-09-09T16:25:09;2.20;;;0.70;;
11865;SDS011;5992;52.744;6.898;2022-09-09T16:28:21;1.00;;;0.80;;
11865;SDS011;5992;52.744;6.898;2022-09-09T16:31:46;1.97;;;0.80;;
11865;SDS011;5992;52.744;6.898;2022-09-09T16:35:01;0.90;;;0.90;;
11865;SDS011;5992;52.744;6.898;2022-09-09T16:38:13;2.15;;;0.90;;
11865;SDS011;5992;52.744;6.898;2022-09-09T16:41:27;1.00;;;0.93;;
11865;SDS011;5992;52.744;6.898;2022-09-09T16:44:50;0.87;;;0.70;;
11865;SDS011;5992;52.744;6.898;2022-09-09T16:47:50;0.93;;;0.80;;
11865;SDS011;5992;52.744;6.898;2022-09-09T16:51:03;0.93;;;0.80;;
11865;SDS011;5992;52.744;6.898;2022-09-09T16:54:15;0.80;;;0.70;;
11865;SDS011;5992;52.744;6.898;2022-09-09T16:57:40;2.10;;;0.70;;
11865;SDS011;5992;52.744;6.898;2022-09-09T17:00:57;1.57;;;0.80;;
11865;SDS011;5992;52.744;6.898;2022-09-09T17:04:08;1.23;;;1.07;;
11865;SDS011;5992;52.744;6.898;2022-09-09T17:07:23;1.20;;;0.90;;
11865;SDS011;5992;52.744;6.898;2022-09-09T17:10:39;1.03;;;0.70;;
11865;SDS011;5992;52.744;6.898;2022-09-09T17:14:05;1.30;;;0.67;;
11865;SDS011;5992;52.744;6.898;2022-09-09T17:17:28;1.30;;;1.00;;
11865;SDS011;5992;52.744;6.898;2022-09-09T17:20:28;2.10;;;1.00;;
11865;SDS011;5992;52.744;6.898;2022-09-09T17:23:40;1.37;;;0.80;;
11865;SDS011;5992;52.744;6.898;2022-09-09T17:26:52;1.05;;;1.00;;
11865;SDS011;5992;52.744;6.898;2022-09-09T17:30:06;3.90;;;1.30;;
11865;SDS011;5992;52.744;6.898;2022-09-09T17:33:21;2.37;;;1.17;;
11865;SDS011;5992;52.744;6.898;2022-09-09T17:36:33;1.30;;;1.20;;
11865;SDS011;5992;52.744;6.898;2022-09-09T17:39:45;2.00;;;0.97;;
11865;SDS011;5992;52.744;6.898;2022-09-09T17:42:57;1.33;;;0.80;;
11865;SDS011;5992;52.744;6.898;2022-09-09T17:46:06;1.10;;;0.83;;
11865;SDS011;5992;52.744;6.898;2022-09-09T17:49:30;0.80;;;0.80;;
11865;SDS011;5992;52.744;6.898;2022-09-09T17:52:30;1.53;;;0.93;;
11865;SDS011;5992;52.744;6.898;2022-09-09T17:55:43;0.93;;;0.80;;
11865;SDS011;5992;52.744;6.898;2022-09-09T17:58:43;1.17;;;0.70;;
11865;SDS011;5992;52.744;6.898;2022-09-09T18:01:59;1.03;;;0.80;;
11865;SDS011;5992;52.744;6.898;2022-09-09T18:05:23;1.70;;;0.80;;
11865;SDS011;5992;52.744;6.898;2022-09-09T18:08:23;1.60;;;1.10;;
11865;SDS011;5992;52.744;6.898;2022-09-09T18:11:36;2.00;;;0.70;;
11865;SDS011;5992;52.744;6.898;2022-09-09T18:14:47;2.30;;;1.30;;
11865;SDS011;5992;52.744;6.898;2022-09-09T18:18:01;1.40;;;1.13;;
11865;SDS011;5992;52.744;6.898;2022-09-09T18:21:13;2.30;;;1.20;;
11865;SDS011;5992;52.744;6.898;2022-09-09T18:24:25;2.00;;;1.10;;
11865;SDS011;5992;52.744;6.898;2022-09-09T18:27:37;1.90;;;1.20;;
11865;SDS011;5992;52.744;6.898;2022-09-09T18:30:49;1.67;;;1.37;;
11865;SDS011;5992;52.744;6.898;2022-09-09T18:33:51;2.53;;;1.40;;
11865;SDS011;5992;52.744;6.898;2022-09-09T18:37:16;2.43;;;1.00;;
11865;SDS011;5992;52.744;6.898;2022-09-09T18:40:17;2.37;;;0.97;;
11865;SDS011;5992;52.744;6.898;2022-09-09T18:43:29;1.30;;;1.00;;
11865;SDS011;5992;52.744;6.898;2022-09-09T18:46:30;1.80;;;1.30;;
11865;SDS011;5992;52.744;6.898;2022-09-09T18:49:55;1.70;;;1.23;;
11865;SDS011;5992;52.744;6.898;2022-09-09T18:53:07;2.43;;;1.37;;
11865;SDS011;5992;52.744;6.898;2022-09-09T18:56:19;1.10;;;1.00;;
11865;SDS011;5992;52.744;6.898;2022-09-09T18:59:31;1.20;;;1.10;;
11865;SDS011;5992;52.744;6.898;2022-09-09T19:02:43;1.70;;;1.13;;
11865;SDS011;5992;52.744;6.898;2022-09-09T19:05:45;2.30;;;1.20;;
11865;SDS011;5992;52.744;6.898;2022-09-09T19:09:12;2.60;;;1.43;;
11865;SDS011;5992;52.744;6.898;2022-09-09T19:12:23;1.53;;;1.20;;
11865;SDS011;5992;52.744;6.898;2022-09-09T19:15:35;1.27;;;1.00;;
11865;SDS011;5992;52.744;6.898;2022-09-09T19:18:35;2.53;;;1.30;;
11865;SDS011;5992;52.744;6.898;2022-09-09T19:22:01;2.35;;;1.10;;
11865;SDS011;5992;52.744;6.898;2022-09-09T19:25:12;1.10;;;1.10;;
11865;SDS011;5992;52.744;6.898;2022-09-09T19:28:24;3.10;;;1.30;;
11865;SDS011;5992;52.744;6.898;2022-09-09T19:31:25;1.83;;;1.33;;
11865;SDS011;5992;52.744;6.898;2022-09-09T19:34:48;2.10;;;1.03;;
11865;SDS011;5992;52.744;6.898;2022-09-09T19:38:02;1.73;;;1.20;;
11865;SDS011;5992;52.744;6.898;2022-09-09T19:41:29;1.70;;;1.60;;
11865;SDS011;5992;52.744;6.898;2022-09-09T19:44:30;1.37;;;1.20;;
11865;SDS011;5992;52.744;6.898;2022-09-09T19:47:42;1.37;;;0.87;;
11865;SDS011;5992;52.744;6.898;2022-09-09T19:50:42;1.83;;;1.27;;
11865;SDS011;5992;52.744;6.898;2022-09-09T19:54:00;1.77;;;1.50;;
11865;SDS011;5992;52.744;6.898;2022-09-09T19:57:12;2.13;;;1.40;;
11865;SDS011;5992;52.744;6.898;2022-09-09T20:00:35;3.05;;;1.20;;
11865;SDS011;5992;52.744;6.898;2022-09-09T20:03:49;2.95;;;1.20;;
11865;SDS011;5992;52.744;6.898;2022-09-09T20:07:00;3.30;;;1.35;;
11865;SDS011;5992;52.744;6.898;2022-09-09T20:10:15;2.57;;;1.30;;
11865;SDS011;5992;52.744;6.898;2022-09-09T20:13:28;1.70;;;1.60;;
11865;SDS011;5992;52.744;6.898;2022-09-09T20:16:52;1.33;;;1.13;;
11865;SDS011;5992;52.744;6.898;2022-09-09T20:19:52;1.43;;;1.00;;